Easy Peasy Solo Sail — FGD9301 — position and weather

sailwx.info

Track history (hours):
 
Tides and Currents Weather Stations Pressure Air Temp Water Temp Dewpoint Dewpoint Depression Visibility Wind Speed Wind Dir Waves Ship Positions

Easy Peasy Solo Sail

Last reported at 2017-Aug-19 23:22 UTC. Time now 2017-Nov-17 17:52 UTC.
Position N 47°40' W 003°38'.
Warning: this ship's position is months out of date.

Length 7 m.

Type: Sailing vessel. MMSI: 227607210.

Date/timePositionNaut miles runAvg speedWind from/ knotsBaromVisibWave heightAir tempDewpointWater temp
2017-Aug-19 23:22N 47°40' W 003°38'2 4.4
2017-Aug-19 22:59N 47°40' W 003°35'2 4.6
2017-Aug-19 22:29N 47°41' W 003°32'2 4.6
2017-Aug-19 22:00N 47°41' W 003°29'2 3.6
2017-Aug-19 21:30N 47°41' W 003°26'2 3.7
2017-Aug-19 21:00N 47°42' W 003°23'2 3.6
2017-Aug-19 20:30N 47°43' W 003°22'2 3.0
2017-Aug-19 20:00N 47°45' W 003°21'0 0.0
2017-Aug-18 16:51N 47°45' W 003°21'0 1.1
2017-Aug-18 16:30N 47°45' W 003°21'0 0.7
2017-Aug-18 16:00N 47°45' W 003°21'  
2017-Aug-14 18:22N 47°43' W 003°22'2 4.9
2017-Aug-14 18:00N 47°42' W 003°22'2 4.3
2017-Aug-14 17:30N 47°40' W 003°21'2 4.3
2017-Aug-14 17:00N 47°38' W 003°20'2 3.6
2017-Aug-14 16:30N 47°36' W 003°19'2 3.2
2017-Aug-14 16:00N 47°34' W 003°19'2 3.9
2017-Aug-14 15:30N 47°32' W 003°19'2 4.9
2017-Aug-14 15:00N 47°30' W 003°18'2 4.4
2017-Aug-14 14:30N 47°28' W 003°18'2 4.2
2017-Aug-14 14:00N 47°26' W 003°17'75 3.6
2017-Aug-13 17:09N 46°30' W 002°04'1 4.1
2017-Aug-13 17:00N 46°30' W 002°03'3 4.0
2017-Aug-13 16:10N 46°29' W 001°58'0 2.4
2017-Aug-13 16:00N 46°29' W 001°58'2 3.8
2017-Aug-13 15:31N 46°28' W 001°55'2 4.4
2017-Aug-13 15:00N 46°29' W 001°52'2 4.3
2017-Aug-13 14:30N 46°29' W 001°49'  
Track history (hours):
 
Tides and Currents Weather Stations Pressure Air Temp Water Temp Dewpoint Dewpoint Depression Visibility Wind Speed Wind Dir Waves Ship Positions

Easy Peasy Solo Sail

Last reported at 2017-Aug-19 23:22 UTC. Time now 2017-Nov-17 17:52 UTC.
Position N 47°40' W 003°38'.
Warning: this ship's position is months out of date.

Length 7 m.

Type: Sailing vessel. MMSI: 227607210.

Date/timePositionNaut miles runAvg speedWind from/ knotsBaromVisibWave heightAir tempDewpointWater temp
2017-Aug-19 23:22N 47°40' W 003°38'2 4.4
2017-Aug-19 22:59N 47°40' W 003°35'2 4.6
2017-Aug-19 22:29N 47°41' W 003°32'2 4.6
2017-Aug-19 22:00N 47°41' W 003°29'2 3.6
2017-Aug-19 21:30N 47°41' W 003°26'2 3.7
2017-Aug-19 21:00N 47°42' W 003°23'2 3.6
2017-Aug-19 20:30N 47°43' W 003°22'2 3.0
2017-Aug-19 20:00N 47°45' W 003°21'0 0.0
2017-Aug-18 16:51N 47°45' W 003°21'0 1.1
2017-Aug-18 16:30N 47°45' W 003°21'0 0.7
2017-Aug-18 16:00N 47°45' W 003°21'  
2017-Aug-14 18:22N 47°43' W 003°22'2 4.9
2017-Aug-14 18:00N 47°42' W 003°22'2 4.3
2017-Aug-14 17:30N 47°40' W 003°21'2 4.3
2017-Aug-14 17:00N 47°38' W 003°20'2 3.6
2017-Aug-14 16:30N 47°36' W 003°19'2 3.2
2017-Aug-14 16:00N 47°34' W 003°19'2 3.9
2017-Aug-14 15:30N 47°32' W 003°19'2 4.9
2017-Aug-14 15:00N 47°30' W 003°18'2 4.4
2017-Aug-14 14:30N 47°28' W 003°18'2 4.2
2017-Aug-14 14:00N 47°26' W 003°17'75 3.6
2017-Aug-13 17:09N 46°30' W 002°04'1 4.1
2017-Aug-13 17:00N 46°30' W 002°03'3 4.0
2017-Aug-13 16:10N 46°29' W 001°58'0 2.4
2017-Aug-13 16:00N 46°29' W 001°58'2 3.8
2017-Aug-13 15:31N 46°28' W 001°55'2 4.4
2017-Aug-13 15:00N 46°29' W 001°52'2 4.3
2017-Aug-13 14:30N 46°29' W 001°49'  

Dump ship's entire track history